createdAt,value
2018-08-08T00:01:54.635Z,17.17
2018-08-08T00:04:23.320Z,17.14
2018-08-08T00:06:53.101Z,17.10
2018-08-08T00:09:21.759Z,17.09
2018-08-08T00:11:50.387Z,17.06
2018-08-08T00:14:19.086Z,17.05
2018-08-08T00:16:47.851Z,17.04
2018-08-08T00:19:16.601Z,17.02
2018-08-08T00:21:45.276Z,17.01
2018-08-08T00:24:13.948Z,17.01
2018-08-08T00:26:42.572Z,16.99
2018-08-08T00:29:11.240Z,16.96
2018-08-08T00:31:40.327Z,16.95
2018-08-08T00:34:09.075Z,16.88
2018-08-08T00:36:37.748Z,16.91
2018-08-08T00:39:07.999Z,16.90
2018-08-08T00:41:36.688Z,16.89
2018-08-08T00:44:05.668Z,16.89
2018-08-08T00:46:34.353Z,16.91
2018-08-08T00:49:03.126Z,16.92
2018-08-08T00:51:32.784Z,16.92
2018-08-08T00:54:01.491Z,16.93
2018-08-08T00:56:30.180Z,16.93
2018-08-08T00:58:58.904Z,16.91
2018-08-08T01:01:27.563Z,16.95
2018-08-08T01:03:56.295Z,16.96
2018-08-08T01:06:25.100Z,16.98
2018-08-08T01:08:53.914Z,16.99
2018-08-08T01:11:22.559Z,17.01
2018-08-08T01:13:51.253Z,17.00
2018-08-08T01:16:19.968Z,17.02
2018-08-08T01:18:48.649Z,17.01
2018-08-08T01:21:17.404Z,17.01
2018-08-08T01:23:46.060Z,17.02
2018-08-08T01:26:14.684Z,16.98
2018-08-08T01:28:43.395Z,17.01
2018-08-08T01:31:12.137Z,17.02
2018-08-08T01:33:40.827Z,17.01
2018-08-08T01:36:09.557Z,17.01
2018-08-08T01:38:38.219Z,17.01
2018-08-08T01:41:06.948Z,17.02
2018-08-08T01:43:35.638Z,17.02
2018-08-08T01:46:04.372Z,17.04
2018-08-08T01:48:33.064Z,17.04
2018-08-08T01:51:01.712Z,17.05
2018-08-08T01:53:30.337Z,17.05
2018-08-08T01:55:59.067Z,17.06
2018-08-08T01:58:27.755Z,17.06
2018-08-08T02:00:56.440Z,17.06
2018-08-08T02:03:25.180Z,17.07
2018-08-08T02:05:58.265Z,17.07
2018-08-08T02:08:26.916Z,17.07
2018-08-08T02:10:55.655Z,17.07
2018-08-08T02:13:24.437Z,17.05
2018-08-08T02:15:53.888Z,17.08
2018-08-08T02:18:22.536Z,17.08
2018-08-08T02:20:51.180Z,17.04
2018-08-08T02:23:19.819Z,17.06
2018-08-08T02:25:48.530Z,17.01
2018-08-08T02:28:17.176Z,17.00
2018-08-08T02:30:45.844Z,17.05
2018-08-08T02:33:14.599Z,17.04
2018-08-08T02:35:43.328Z,17.04
2018-08-08T02:38:11.988Z,17.04
2018-08-08T02:40:40.659Z,17.00
2018-08-08T02:43:09.670Z,17.02
2018-08-08T02:45:38.317Z,17.02
2018-08-08T02:48:07.173Z,17.02
2018-08-08T02:50:35.903Z,17.03
2018-08-08T02:53:04.664Z,17.02
2018-08-08T02:55:33.369Z,17.02
2018-08-08T02:58:02.053Z,17.01
2018-08-08T03:00:30.768Z,17.01
2018-08-08T03:03:00.485Z,17.01
2018-08-08T03:05:29.224Z,16.99
2018-08-08T03:07:57.925Z,17.02
2018-08-08T03:10:26.690Z,17.02
2018-08-08T03:12:56.315Z,17.00
2018-08-08T03:15:25.052Z,17.02
2018-08-08T03:17:53.691Z,17.02
2018-08-08T03:20:22.359Z,16.99
2018-08-08T03:22:51.048Z,16.98
2018-08-08T03:25:19.744Z,17.01
2018-08-08T03:27:48.486Z,16.98
2018-08-08T03:30:19.178Z,17.00
2018-08-08T03:32:48.714Z,16.98
2018-08-08T03:35:17.816Z,16.96
2018-08-08T03:37:46.587Z,16.93
2018-08-08T03:40:16.257Z,16.88
2018-08-08T03:42:45.203Z,16.83
2018-08-08T03:45:15.264Z,16.78
2018-08-08T03:47:44.004Z,16.75
2018-08-08T03:50:13.242Z,16.75
2018-08-08T03:52:42.904Z,16.74
2018-08-08T03:55:12.292Z,16.75
2018-08-08T03:57:41.405Z,16.75
2018-08-08T04:00:15.033Z,16.75
2018-08-08T04:02:43.781Z,16.77
2018-08-08T04:05:12.552Z,16.77
2018-08-08T04:07:41.283Z,16.75
2018-08-08T04:10:10.557Z,16.74
2018-08-08T04:12:39.266Z,16.71
2018-08-08T04:15:10.654Z,16.65
2018-08-08T04:17:39.448Z,16.63
2018-08-08T04:20:09.028Z,16.53
2018-08-08T04:22:37.779Z,16.55
2018-08-08T04:25:09.090Z,16.49
2018-08-08T04:27:37.831Z,16.48
2018-08-08T04:30:12.823Z,16.45
2018-08-08T04:32:41.519Z,16.39
2018-08-08T04:35:10.508Z,16.38
2018-08-08T04:37:39.599Z,16.33
2018-08-08T04:40:11.411Z,16.29
2018-08-08T04:42:40.448Z,16.26
2018-08-08T04:45:09.236Z,16.24
2018-08-08T04:47:37.923Z,16.23
2018-08-08T04:50:07.083Z,16.20
2018-08-08T04:52:35.935Z,16.20
2018-08-08T04:55:05.118Z,16.21
2018-08-08T04:57:34.448Z,16.22
2018-08-08T05:00:03.247Z,16.24
2018-08-08T05:02:31.951Z,16.20
2018-08-08T05:05:00.637Z,16.23
2018-08-08T05:07:29.362Z,16.23
2018-08-08T05:09:58.099Z,16.21
2018-08-08T05:12:26.822Z,16.19
2018-08-08T05:14:55.495Z,16.19
2018-08-08T05:17:24.201Z,16.18
2018-08-08T05:19:52.850Z,16.18
2018-08-08T05:22:21.572Z,16.16
2018-08-08T05:24:50.286Z,16.17
2018-08-08T05:27:18.975Z,16.18
2018-08-08T05:29:47.655Z,16.19
2018-08-08T05:32:16.451Z,16.19
2018-08-08T05:34:45.170Z,16.22
2018-08-08T05:37:13.939Z,16.24
2018-08-08T05:39:42.632Z,16.26
2018-08-08T05:42:11.371Z,16.29
2018-08-08T05:44:40.044Z,16.33
2018-08-08T05:47:08.796Z,16.36
2018-08-08T05:49:37.510Z,16.37
2018-08-08T05:52:06.438Z,16.38
2018-08-08T05:54:35.128Z,16.38
2018-08-08T05:57:03.835Z,16.40
2018-08-08T05:59:32.599Z,16.42
2018-08-08T06:02:01.328Z,16.44
2018-08-08T06:04:30.586Z,16.45
2018-08-08T06:06:59.359Z,16.46
2018-08-08T06:09:28.093Z,16.44
2018-08-08T06:11:56.775Z,16.50
2018-08-08T06:14:25.513Z,16.53
2018-08-08T06:16:54.188Z,16.56
2018-08-08T06:19:22.841Z,16.56
2018-08-08T06:21:51.559Z,16.63
2018-08-08T06:24:20.263Z,16.64
2018-08-08T06:26:49.096Z,16.69
2018-08-08T06:29:17.776Z,16.74
2018-08-08T06:31:46.470Z,16.77
2018-08-08T06:34:15.151Z,16.79
2018-08-08T06:36:43.833Z,16.78
2018-08-08T06:39:14.093Z,16.81
2018-08-08T06:41:43.618Z,16.83
2018-08-08T06:44:12.294Z,16.85
2018-08-08T06:46:41.005Z,16.83
2018-08-08T06:49:09.769Z,16.85
2018-08-08T06:51:38.530Z,16.90
2018-08-08T06:54:07.723Z,16.90
2018-08-08T06:56:36.558Z,16.91
2018-08-08T06:59:05.762Z,16.94
2018-08-08T07:01:34.639Z,16.99
2018-08-08T07:04:03.621Z,17.08
2018-08-08T07:06:32.456Z,17.16
2018-08-08T07:09:01.157Z,17.21
2018-08-08T07:11:30.053Z,17.23
2018-08-08T07:13:59.809Z,17.24
2018-08-08T07:16:28.576Z,17.26
2018-08-08T07:18:57.291Z,17.28
2018-08-08T07:21:26.021Z,17.31
2018-08-08T07:23:54.779Z,17.35
2018-08-08T07:26:23.409Z,17.37
2018-08-08T07:28:52.406Z,17.42
2018-08-08T07:31:21.123Z,17.47
2018-08-08T07:33:49.937Z,17.52
2018-08-08T07:36:19.640Z,17.60
2018-08-08T07:38:48.568Z,17.66
2018-08-08T07:41:17.415Z,17.72
2018-08-08T07:43:46.227Z,17.79
2018-08-08T07:46:15.062Z,17.87
2018-08-08T07:48:43.939Z,17.90
2018-08-08T07:51:12.740Z,17.91
2018-08-08T07:53:41.420Z,17.90
2018-08-08T07:56:10.099Z,17.89
2018-08-08T07:58:38.807Z,17.89
2018-08-08T08:01:07.640Z,17.93
2018-08-08T08:03:36.414Z,17.94
2018-08-08T08:06:05.184Z,17.95
2018-08-08T08:08:33.888Z,17.94
2018-08-08T08:11:02.607Z,17.92
2018-08-08T08:13:31.283Z,17.95
2018-08-08T08:15:59.964Z,18.07
2018-08-08T08:18:28.643Z,18.25
2018-08-08T08:20:57.304Z,18.48
2018-08-08T08:23:25.972Z,18.69
2018-08-08T08:25:54.652Z,18.82
2018-08-08T08:28:23.296Z,18.87
2018-08-08T08:30:51.929Z,18.78
2018-08-08T08:33:20.580Z,18.48
2018-08-08T08:35:49.282Z,18.17
2018-08-08T08:38:17.974Z,17.93
2018-08-08T08:40:46.664Z,17.70
2018-08-08T08:43:15.353Z,17.55
2018-08-08T08:45:44.045Z,17.42
2018-08-08T08:48:12.723Z,17.30
2018-08-08T08:50:41.396Z,17.28
2018-08-08T08:53:10.063Z,17.30
2018-08-08T08:55:38.758Z,17.36
2018-08-08T08:58:07.441Z,17.44
2018-08-08T09:00:36.093Z,17.43
2018-08-08T09:03:04.844Z,17.48
2018-08-08T09:05:33.520Z,17.51
2018-08-08T09:08:02.216Z,17.56
2018-08-08T09:10:30.871Z,17.64
2018-08-08T09:12:59.561Z,17.73
2018-08-08T09:15:28.232Z,17.78
2018-08-08T09:17:56.943Z,17.87
2018-08-08T09:20:25.653Z,17.96
2018-08-08T09:22:54.334Z,18.04
2018-08-08T09:25:23.023Z,18.01
2018-08-08T09:27:51.712Z,17.96
2018-08-08T09:30:20.428Z,17.95
2018-08-08T09:32:49.070Z,18.00
2018-08-08T09:35:17.748Z,18.06
2018-08-08T09:37:46.428Z,18.16
2018-08-08T09:40:15.146Z,18.33
2018-08-08T09:42:43.775Z,18.54
2018-08-08T09:45:12.468Z,18.70
2018-08-08T09:47:41.105Z,18.78
2018-08-08T09:50:10.122Z,18.82
2018-08-08T09:52:38.963Z,18.82
2018-08-08T09:55:07.682Z,18.82
2018-08-08T09:57:36.367Z,18.88
2018-08-08T10:00:05.903Z,19.03
2018-08-08T10:02:43.560Z,19.10
2018-08-08T10:05:12.244Z,19.21
2018-08-08T10:07:40.915Z,19.29
2018-08-08T10:10:09.657Z,19.37
2018-08-08T10:12:38.335Z,19.49
2018-08-08T10:15:07.101Z,19.58
2018-08-08T10:17:35.788Z,19.61
2018-08-08T10:20:04.620Z,19.62
2018-08-08T10:22:33.291Z,19.52
2018-08-08T10:25:01.990Z,19.50
2018-08-08T10:27:30.656Z,19.55
2018-08-08T10:29:59.322Z,19.62
2018-08-08T10:32:27.999Z,19.67
2018-08-08T10:34:56.667Z,19.59
2018-08-08T10:37:25.573Z,19.43
2018-08-08T10:39:54.251Z,19.51
2018-08-08T10:42:22.937Z,19.67
2018-08-08T10:44:51.606Z,19.74
2018-08-08T10:47:20.264Z,19.75
2018-08-08T10:49:48.981Z,19.66
2018-08-08T10:52:17.623Z,19.62
2018-08-08T10:54:46.312Z,19.62
2018-08-08T10:57:14.991Z,19.59
2018-08-08T10:59:43.733Z,19.66
2018-08-08T11:02:12.322Z,19.77
2018-08-08T11:04:41.010Z,19.92
2018-08-08T11:07:09.663Z,20.01
2018-08-08T11:09:38.350Z,20.05
2018-08-08T11:12:07.094Z,20.08
2018-08-08T11:14:35.751Z,20.13
2018-08-08T11:17:04.512Z,20.16
2018-08-08T11:19:33.164Z,20.18
2018-08-08T11:22:01.825Z,20.10
2018-08-08T11:24:30.494Z,20.05
2018-08-08T11:26:59.187Z,20.08
2018-08-08T11:29:27.843Z,20.11
2018-08-08T11:31:56.499Z,20.07
2018-08-08T11:34:25.148Z,19.84
2018-08-08T11:36:53.855Z,19.56
2018-08-08T11:39:22.515Z,19.29
2018-08-08T11:41:51.245Z,19.08
2018-08-08T11:44:19.899Z,18.90
2018-08-08T11:46:48.677Z,18.76
2018-08-08T11:49:17.305Z,18.80
2018-08-08T11:51:45.945Z,18.82
2018-08-08T11:54:14.567Z,18.89
2018-08-08T11:56:43.241Z,18.98
2018-08-08T11:59:11.991Z,19.06
2018-08-08T12:01:46.114Z,19.13
2018-08-08T12:04:14.745Z,19.17
2018-08-08T12:06:43.419Z,19.11
2018-08-08T12:09:12.072Z,19.03
2018-08-08T12:11:40.925Z,19.05
2018-08-08T12:14:10.235Z,18.99
2018-08-08T12:16:38.939Z,19.05
2018-08-08T12:19:07.643Z,19.12
2018-08-08T12:21:36.288Z,19.30
2018-08-08T12:24:04.993Z,19.55
2018-08-08T12:26:33.620Z,19.64
2018-08-08T12:29:02.423Z,19.69
2018-08-08T12:31:31.171Z,19.75
2018-08-08T12:33:59.834Z,19.79
2018-08-08T12:36:28.507Z,19.81
2018-08-08T12:38:57.180Z,19.80
2018-08-08T12:41:25.838Z,19.79
2018-08-08T12:43:54.505Z,19.86
2018-08-08T12:46:23.144Z,19.89
2018-08-08T12:48:52.227Z,19.95
2018-08-08T12:51:20.978Z,19.98
2018-08-08T12:53:49.639Z,20.02
2018-08-08T12:56:18.315Z,20.05
2018-08-08T12:58:46.951Z,20.16
2018-08-08T13:01:15.587Z,20.38
2018-08-08T13:03:44.221Z,20.59
2018-08-08T13:06:12.949Z,20.82
2018-08-08T13:08:41.649Z,20.94
2018-08-08T13:11:10.287Z,21.15
2018-08-08T13:13:38.947Z,21.33
2018-08-08T13:16:07.753Z,21.47
2018-08-08T13:18:36.426Z,21.42
2018-08-08T13:21:05.191Z,21.26
2018-08-08T13:23:33.800Z,21.18
2018-08-08T13:26:02.500Z,21.12
2018-08-08T13:28:31.193Z,21.06
2018-08-08T13:30:59.915Z,20.93
2018-08-08T13:33:28.579Z,20.84
2018-08-08T13:35:57.260Z,20.96
2018-08-08T13:38:25.910Z,21.12
2018-08-08T13:40:54.571Z,21.26
2018-08-08T13:43:23.263Z,21.45
2018-08-08T13:45:52.103Z,21.66
2018-08-08T13:48:20.814Z,21.81
2018-08-08T13:50:49.443Z,21.87
2018-08-08T13:53:18.171Z,22.13
2018-08-08T13:55:46.817Z,22.23
2018-08-08T13:58:15.459Z,22.22
2018-08-08T14:00:44.127Z,22.29
2018-08-08T14:03:12.771Z,22.42
2018-08-08T14:05:41.391Z,22.53
2018-08-08T14:08:10.058Z,22.56
2018-08-08T14:10:38.684Z,22.66
2018-08-08T14:13:07.408Z,22.71
2018-08-08T14:15:36.618Z,22.76
2018-08-08T14:18:05.494Z,22.81
2018-08-08T14:20:34.285Z,22.83
2018-08-08T14:23:03.029Z,22.86
2018-08-08T14:25:31.719Z,22.91
2018-08-08T14:28:00.445Z,22.74
2018-08-08T14:30:29.195Z,22.89
2018-08-08T14:32:57.816Z,22.97
2018-08-08T14:35:26.532Z,22.98
2018-08-08T14:37:55.211Z,22.96
2018-08-08T14:40:23.852Z,22.91
2018-08-08T14:42:52.492Z,22.95
2018-08-08T14:45:21.130Z,23.06
2018-08-08T14:47:49.750Z,23.07
2018-08-08T14:50:18.423Z,22.99
2018-08-08T14:52:47.096Z,22.97
2018-08-08T14:55:15.780Z,22.98
2018-08-08T14:57:44.500Z,22.94
2018-08-08T15:00:13.199Z,22.98
2018-08-08T15:02:41.823Z,23.10
2018-08-08T15:05:11.524Z,23.18
2018-08-08T15:07:40.272Z,23.26
2018-08-08T15:10:08.957Z,23.38
2018-08-08T15:12:37.647Z,23.40
2018-08-08T15:15:07.769Z,23.42
2018-08-08T15:17:36.438Z,23.41
2018-08-08T15:20:05.739Z,23.38
2018-08-08T15:22:34.398Z,23.03
2018-08-08T15:25:03.055Z,22.87
2018-08-08T15:27:31.723Z,22.93
2018-08-08T15:30:00.631Z,22.86
2018-08-08T15:32:29.322Z,22.93
2018-08-08T15:34:57.991Z,23.17
2018-08-08T15:37:27.027Z,23.47
2018-08-08T15:39:55.374Z,23.48
2018-08-08T15:42:24.091Z,23.41
2018-08-08T15:44:52.784Z,23.50
2018-08-08T15:47:21.566Z,23.70
2018-08-08T15:49:50.236Z,23.68
2018-08-08T15:52:18.931Z,23.56
2018-08-08T15:54:47.580Z,23.39
2018-08-08T15:57:16.268Z,23.29
2018-08-08T15:59:44.973Z,23.19
2018-08-08T16:02:13.619Z,23.07
2018-08-08T16:04:42.260Z,23.08
2018-08-08T16:07:10.943Z,23.20
2018-08-08T16:09:39.578Z,23.53
2018-08-08T16:12:08.279Z,23.85
2018-08-08T16:14:36.902Z,23.95
2018-08-08T16:17:05.652Z,23.97
2018-08-08T16:19:34.307Z,23.82
2018-08-08T16:22:02.973Z,23.73
2018-08-08T16:24:31.818Z,23.73
2018-08-08T16:27:00.484Z,23.70
2018-08-08T16:29:29.136Z,23.77
2018-08-08T16:31:57.844Z,23.86
2018-08-08T16:34:26.496Z,23.83
2018-08-08T16:36:55.152Z,23.88
2018-08-08T16:39:23.901Z,24.14
2018-08-08T16:41:52.560Z,24.43
2018-08-08T16:44:21.209Z,24.78
2018-08-08T16:46:49.864Z,24.95
2018-08-08T16:49:18.552Z,24.91
2018-08-08T16:51:47.180Z,24.94
2018-08-08T16:54:15.828Z,24.82
2018-08-08T16:56:44.461Z,24.48
2018-08-08T16:59:13.162Z,24.21
2018-08-08T17:01:41.801Z,24.11
2018-08-08T17:04:10.435Z,24.29
2018-08-08T17:06:39.084Z,24.60
2018-08-08T17:09:09.950Z,24.89
2018-08-08T17:11:38.661Z,25.16
2018-08-08T17:14:07.510Z,25.36
2018-08-08T17:16:37.203Z,25.66
2018-08-08T17:19:05.892Z,25.80
2018-08-08T17:21:34.532Z,25.73
2018-08-08T17:24:03.313Z,25.70
2018-08-08T17:26:31.937Z,25.61
2018-08-08T17:29:00.734Z,25.20
2018-08-08T17:31:29.463Z,24.80
2018-08-08T17:33:58.089Z,24.51
2018-08-08T17:36:26.747Z,24.36
2018-08-08T17:38:55.420Z,24.42
2018-08-08T17:41:24.112Z,24.49
2018-08-08T17:43:53.091Z,24.59
2018-08-08T17:46:21.498Z,24.75
2018-08-08T17:48:50.156Z,25.02
2018-08-08T17:51:18.798Z,25.05
2018-08-08T17:53:47.416Z,24.99
2018-08-08T17:56:16.041Z,24.96
2018-08-08T17:58:44.710Z,24.73
2018-08-08T18:01:13.443Z,24.49
2018-08-08T18:03:42.106Z,24.47
2018-08-08T18:06:11.136Z,24.35
2018-08-08T18:08:39.853Z,24.39
2018-08-08T18:11:08.652Z,24.34
2018-08-08T18:13:37.356Z,24.35
2018-08-08T18:16:06.075Z,24.24
2018-08-08T18:18:34.887Z,24.06
2018-08-08T18:21:03.731Z,23.81
2018-08-08T18:23:32.547Z,23.49
2018-08-08T18:26:01.356Z,23.30
2018-08-08T18:28:30.098Z,23.28
2018-08-08T18:30:58.936Z,23.20
2018-08-08T18:33:27.911Z,23.06
2018-08-08T18:35:56.684Z,22.83
2018-08-08T18:38:25.399Z,22.59
2018-08-08T18:40:54.223Z,22.32
2018-08-08T18:43:22.974Z,22.09
2018-08-08T18:45:52.564Z,21.82
2018-08-08T18:48:21.339Z,21.59
2018-08-08T18:50:50.056Z,21.42
2018-08-08T18:53:18.875Z,21.25
2018-08-08T18:55:47.787Z,21.05
2018-08-08T18:58:16.540Z,20.89
2018-08-08T19:00:45.299Z,20.76
2018-08-08T19:03:14.146Z,20.64
2018-08-08T19:05:43.027Z,20.52
2018-08-08T19:08:12.667Z,20.37
2018-08-08T19:10:41.308Z,20.24
2018-08-08T19:13:09.983Z,20.14
2018-08-08T19:15:38.657Z,20.06
2018-08-08T19:18:07.319Z,19.96
2018-08-08T19:20:35.943Z,19.87
2018-08-08T19:23:04.606Z,19.81
2018-08-08T19:25:33.227Z,19.70
2018-08-08T19:28:01.867Z,19.61
2018-08-08T19:30:30.524Z,19.52
2018-08-08T19:32:59.172Z,19.45
2018-08-08T19:35:27.816Z,19.34
2018-08-08T19:37:56.455Z,19.26
2018-08-08T19:40:25.160Z,19.17
2018-08-08T19:42:53.875Z,19.11
2018-08-08T19:45:22.516Z,19.02
2018-08-08T19:47:51.163Z,18.94
2018-08-08T19:50:19.807Z,18.88
2018-08-08T19:52:48.545Z,18.80
2018-08-08T19:55:17.248Z,18.72
2018-08-08T19:57:46.039Z,18.64
2018-08-08T20:00:14.884Z,18.58
2018-08-08T20:02:43.840Z,18.49
2018-08-08T20:05:12.547Z,18.42
2018-08-08T20:07:42.074Z,18.37
2018-08-08T20:10:11.546Z,18.32
2018-08-08T20:12:40.350Z,18.27
2018-08-08T20:15:09.110Z,18.22
2018-08-08T20:17:37.972Z,18.15
2018-08-08T20:20:06.957Z,18.10
2018-08-08T20:22:35.693Z,18.07
2018-08-08T20:25:04.674Z,18.05
2018-08-08T20:27:33.614Z,18.06
2018-08-08T20:30:02.497Z,18.02
2018-08-08T20:32:31.391Z,18.02
2018-08-08T20:35:00.123Z,18.00
2018-08-08T20:37:28.793Z,18.00
2018-08-08T20:39:57.539Z,17.97
2018-08-08T20:42:26.313Z,17.96
2018-08-08T20:44:55.311Z,17.94
2018-08-08T20:47:24.144Z,17.93
2018-08-08T20:49:53.002Z,17.91
2018-08-08T20:52:21.901Z,17.90
2018-08-08T20:54:51.408Z,17.90
2018-08-08T20:57:20.273Z,17.88
2018-08-08T20:59:49.019Z,17.88
2018-08-08T21:02:17.916Z,17.85
2018-08-08T21:04:46.909Z,17.86
2018-08-08T21:07:15.742Z,17.85
2018-08-08T21:09:44.637Z,17.84
2018-08-08T21:12:13.471Z,17.83
2018-08-08T21:14:42.482Z,17.82
2018-08-08T21:17:11.336Z,17.82
2018-08-08T21:19:40.073Z,17.82
2018-08-08T21:22:09.391Z,17.80
2018-08-08T21:24:38.111Z,17.79
2018-08-08T21:27:07.078Z,17.77
2018-08-08T21:29:35.898Z,17.76
2018-08-08T21:32:04.685Z,17.75
2018-08-08T21:34:33.481Z,17.72
2018-08-08T21:37:02.680Z,17.69
2018-08-08T21:39:31.591Z,17.68
2018-08-08T21:42:00.384Z,17.65
2018-08-08T21:44:29.052Z,17.62
2018-08-08T21:46:57.771Z,17.58
2018-08-08T21:49:26.460Z,17.52
2018-08-08T21:51:55.098Z,17.48
2018-08-08T21:54:35.041Z,17.46
2018-08-08T21:57:14.821Z,17.44
2018-08-08T21:59:54.550Z,17.42
2018-08-08T22:02:34.168Z,17.40
2018-08-08T22:05:13.772Z,17.38
2018-08-08T22:07:53.487Z,17.33
2018-08-08T22:10:33.063Z,17.29
2018-08-08T22:13:12.607Z,17.26
2018-08-08T22:15:52.172Z,17.23
2018-08-08T22:18:31.833Z,17.19
2018-08-08T22:21:00.447Z,17.17
2018-08-08T22:23:29.083Z,17.13
2018-08-08T22:25:57.895Z,17.07
2018-08-08T22:28:26.605Z,17.03
2018-08-08T22:30:55.242Z,16.99
2018-08-08T22:33:23.879Z,16.96
2018-08-08T22:35:52.507Z,16.91
2018-08-08T22:38:21.119Z,16.87
2018-08-08T22:40:49.873Z,16.86
2018-08-08T22:43:18.553Z,16.85
2018-08-08T22:45:47.211Z,16.83
2018-08-08T22:48:15.844Z,16.85
2018-08-08T22:50:44.476Z,16.84
2018-08-08T22:53:13.087Z,16.81
2018-08-08T22:55:41.687Z,16.82
2018-08-08T22:58:10.327Z,16.79
2018-08-08T23:00:38.991Z,16.80
2018-08-08T23:03:07.651Z,16.81
2018-08-08T23:05:36.289Z,16.79
2018-08-08T23:08:05.008Z,16.78
2018-08-08T23:10:33.648Z,16.77
2018-08-08T23:13:02.314Z,16.77
2018-08-08T23:15:30.942Z,16.72
2018-08-08T23:17:59.561Z,16.65
2018-08-08T23:20:44.373Z,16.66
2018-08-08T23:23:13.028Z,16.64
2018-08-08T23:25:41.651Z,16.60
2018-08-08T23:28:10.283Z,16.50
2018-08-08T23:30:38.963Z,16.53
2018-08-08T23:33:07.696Z,16.46
2018-08-08T23:35:36.339Z,16.43
2018-08-08T23:38:04.980Z,16.44
2018-08-08T23:40:33.606Z,16.42
2018-08-08T23:43:02.232Z,16.39
2018-08-08T23:45:30.933Z,16.38
2018-08-08T23:47:59.545Z,16.38
2018-08-08T23:50:28.167Z,16.35
2018-08-08T23:52:56.797Z,16.33
2018-08-08T23:55:25.448Z,16.27
2018-08-08T23:57:54.106Z,16.30
